createdAt,value
2019-03-15T00:01:40.082Z,5.30
2019-03-15T00:04:08.553Z,5.30
2019-03-15T00:06:39.035Z,5.17
2019-03-15T00:09:09.866Z,4.87
2019-03-15T00:11:38.271Z,4.90
2019-03-15T00:14:06.981Z,4.77
2019-03-15T00:16:35.430Z,4.57
2019-03-15T00:19:03.921Z,4.67
2019-03-15T00:21:32.451Z,4.10
2019-03-15T00:24:00.879Z,4.47
2019-03-15T00:26:29.307Z,3.90
2019-03-15T00:28:57.702Z,4.00
2019-03-15T00:31:26.197Z,3.93
2019-03-15T00:33:54.695Z,3.93
2019-03-15T00:36:23.116Z,4.03
2019-03-15T00:38:51.564Z,3.73
2019-03-15T00:41:20.024Z,4.10
2019-03-15T00:43:49.606Z,4.03
2019-03-15T00:46:18.295Z,3.67
2019-03-15T00:48:46.691Z,3.73
2019-03-15T00:51:15.076Z,3.90
2019-03-15T00:53:43.586Z,4.00
2019-03-15T00:56:11.987Z,3.60
2019-03-15T00:58:40.453Z,3.67
2019-03-15T01:01:08.848Z,3.27
2019-03-15T01:03:37.249Z,3.30
2019-03-15T01:06:05.649Z,3.27
2019-03-15T01:08:34.070Z,3.03
2019-03-15T01:11:02.516Z,3.27
2019-03-15T01:13:31.024Z,3.23
2019-03-15T01:15:59.491Z,2.90
2019-03-15T01:18:27.906Z,2.70
2019-03-15T01:20:56.370Z,2.80
2019-03-15T01:23:24.761Z,2.80
2019-03-15T01:25:53.210Z,2.63
2019-03-15T01:28:21.603Z,2.90
2019-03-15T01:30:50.032Z,2.53
2019-03-15T01:33:18.453Z,2.80
2019-03-15T01:35:46.852Z,3.00
2019-03-15T01:38:15.256Z,2.80
2019-03-15T01:40:43.662Z,3.10
2019-03-15T01:43:12.057Z,2.50
2019-03-15T01:45:40.437Z,2.90
2019-03-15T01:48:08.845Z,3.00
2019-03-15T01:50:37.266Z,2.67
2019-03-15T01:53:05.722Z,2.90
2019-03-15T01:55:35.079Z,2.70
2019-03-15T01:58:03.419Z,2.60
2019-03-15T02:00:31.972Z,2.70
2019-03-15T02:03:02.341Z,2.07
2019-03-15T02:05:30.493Z,2.60
2019-03-15T02:07:58.897Z,2.73
2019-03-15T02:10:27.285Z,3.17
2019-03-15T02:12:55.688Z,2.60
2019-03-15T02:15:24.145Z,2.70
2019-03-15T02:17:52.718Z,2.37
2019-03-15T02:20:22.411Z,2.57
2019-03-15T02:22:50.852Z,2.67
2019-03-15T02:25:19.266Z,2.50
2019-03-15T02:27:47.664Z,2.80
2019-03-15T02:30:16.059Z,3.00
2019-03-15T02:32:44.449Z,3.00
2019-03-15T02:35:12.886Z,3.20
2019-03-15T02:37:41.287Z,3.30
2019-03-15T02:40:09.733Z,3.60
2019-03-15T02:42:38.141Z,3.60
2019-03-15T02:45:06.595Z,3.50
2019-03-15T02:47:35.034Z,3.50
2019-03-15T02:50:04.310Z,3.87
2019-03-15T02:52:32.696Z,3.70
2019-03-15T02:55:01.151Z,3.83
2019-03-15T02:57:29.623Z,3.80
2019-03-15T02:59:57.952Z,3.70
2019-03-15T03:02:27.651Z,3.60
2019-03-15T03:04:56.327Z,3.57
2019-03-15T03:07:24.760Z,4.20
2019-03-15T03:09:53.143Z,3.60
2019-03-15T03:12:21.570Z,4.13
2019-03-15T03:14:49.977Z,3.67
2019-03-15T03:17:18.414Z,3.60
2019-03-15T03:19:48.049Z,3.63
2019-03-15T03:22:16.414Z,3.20
2019-03-15T03:24:44.921Z,3.30
2019-03-15T03:27:13.299Z,3.60
2019-03-15T03:29:41.689Z,3.30
2019-03-15T03:32:10.136Z,3.40
2019-03-15T03:34:40.455Z,3.40
2019-03-15T03:37:08.625Z,3.50
2019-03-15T03:39:37.070Z,3.40
2019-03-15T03:42:05.566Z,3.53
2019-03-15T03:44:33.960Z,3.90
2019-03-15T03:47:02.410Z,3.43
2019-03-15T03:49:30.867Z,4.47
2019-03-15T03:51:59.243Z,4.27
2019-03-15T03:54:27.904Z,3.80
2019-03-15T03:56:56.430Z,4.10
2019-03-15T03:59:24.829Z,4.30
2019-03-15T04:01:53.231Z,4.20
2019-03-15T04:04:21.687Z,4.07
2019-03-15T04:06:50.212Z,4.53
2019-03-15T04:09:18.654Z,4.83
2019-03-15T04:11:55.241Z,4.47
2019-03-15T04:14:17.188Z,5.33
2019-03-15T04:16:45.651Z,4.83
2019-03-15T04:19:14.062Z,5.20
2019-03-15T04:21:42.498Z,4.30
2019-03-15T04:24:10.894Z,5.67
2019-03-15T04:26:40.933Z,4.77
2019-03-15T04:29:09.319Z,5.00
2019-03-15T04:31:37.715Z,4.80
2019-03-15T04:34:06.144Z,5.00
2019-03-15T04:36:34.543Z,4.50
2019-03-15T04:39:03.648Z,4.90
2019-03-15T04:41:32.058Z,4.27
2019-03-15T04:44:00.455Z,4.70
2019-03-15T04:46:28.880Z,4.77
2019-03-15T04:48:57.285Z,4.90
2019-03-15T04:51:25.699Z,5.00
2019-03-15T04:53:54.094Z,4.60
2019-03-15T04:56:22.480Z,4.60
2019-03-15T04:58:50.866Z,4.33
2019-03-15T05:01:19.262Z,4.53
2019-03-15T05:03:47.650Z,4.77
2019-03-15T05:06:16.028Z,4.73
2019-03-15T05:08:44.409Z,5.20
2019-03-15T05:11:12.824Z,4.70
2019-03-15T05:13:41.207Z,4.87
2019-03-15T05:16:09.704Z,4.90
2019-03-15T05:18:38.121Z,4.90
2019-03-15T05:21:06.509Z,5.67
2019-03-15T05:23:34.902Z,5.70
2019-03-15T05:26:03.290Z,5.63
2019-03-15T05:28:31.694Z,6.60
2019-03-15T05:31:00.092Z,5.80
2019-03-15T05:33:28.482Z,6.10
2019-03-15T05:35:56.880Z,6.20
2019-03-15T05:38:25.265Z,6.93
2019-03-15T05:40:54.120Z,6.60
2019-03-15T05:43:22.521Z,7.63
2019-03-15T05:45:50.926Z,8.37
2019-03-15T05:48:19.320Z,9.60
2019-03-15T05:50:47.708Z,9.87
2019-03-15T05:53:16.105Z,10.30
2019-03-15T05:55:44.498Z,10.57
2019-03-15T05:58:12.907Z,10.50
2019-03-15T06:00:41.301Z,9.70
2019-03-15T06:03:12.327Z,9.67
2019-03-15T06:05:39.885Z,10.83
2019-03-15T06:08:08.274Z,9.53
2019-03-15T06:10:36.681Z,9.83
2019-03-15T06:13:05.054Z,10.72
2019-03-15T06:15:33.448Z,9.33
2019-03-15T06:18:01.831Z,9.57
2019-03-15T06:20:30.221Z,8.93
2019-03-15T06:22:58.611Z,8.93
2019-03-15T06:25:27.083Z,8.73
2019-03-15T06:27:55.476Z,9.00
2019-03-15T06:30:23.852Z,9.53
2019-03-15T06:32:52.248Z,8.87
2019-03-15T06:35:20.635Z,9.40
2019-03-15T06:37:49.016Z,8.97
2019-03-15T06:40:17.407Z,8.50
2019-03-15T06:42:45.788Z,9.20
2019-03-15T06:45:14.949Z,8.23
2019-03-15T06:47:44.269Z,7.87
2019-03-15T06:50:13.677Z,8.57
2019-03-15T06:52:42.365Z,7.73
2019-03-15T06:55:10.861Z,7.47
2019-03-15T06:57:39.208Z,7.93
2019-03-15T07:00:13.149Z,7.50
2019-03-15T07:02:41.531Z,8.00
2019-03-15T07:05:12.154Z,8.10
2019-03-15T07:07:40.297Z,7.00
2019-03-15T07:10:10.523Z,7.40
2019-03-15T07:12:40.481Z,7.03
2019-03-15T07:15:12.253Z,6.60
2019-03-15T07:17:41.733Z,6.50
2019-03-15T07:20:17.159Z,6.60
2019-03-15T07:22:45.545Z,5.43
2019-03-15T07:25:14.393Z,5.23
2019-03-15T07:27:43.215Z,5.40
2019-03-15T07:30:14.057Z,5.20
2019-03-15T07:32:42.445Z,5.43
2019-03-15T07:35:10.900Z,5.43
2019-03-15T07:37:39.291Z,5.30
2019-03-15T07:40:12.761Z,5.30
2019-03-15T07:42:41.155Z,4.87
2019-03-15T07:45:11.188Z,5.50
2019-03-15T07:47:39.590Z,5.40
2019-03-15T07:50:13.805Z,5.77
2019-03-15T07:52:40.523Z,5.97
2019-03-15T07:55:09.443Z,6.00
2019-03-15T07:57:37.877Z,5.90
2019-03-15T08:00:12.212Z,6.30
2019-03-15T08:02:40.599Z,5.57
2019-03-15T08:05:09.760Z,6.03
2019-03-15T08:07:44.766Z,5.33
2019-03-15T08:10:12.841Z,5.47
2019-03-15T08:12:41.235Z,5.40
2019-03-15T08:15:11.493Z,5.77
2019-03-15T08:17:39.858Z,4.90
2019-03-15T08:20:10.580Z,4.97
2019-03-15T08:22:38.967Z,4.30
2019-03-15T08:25:09.291Z,4.33
2019-03-15T08:27:37.676Z,4.43
2019-03-15T08:30:11.563Z,3.87
2019-03-15T08:32:43.523Z,3.97
2019-03-15T08:35:11.095Z,3.93
2019-03-15T08:37:39.547Z,3.40
2019-03-15T08:40:12.303Z,3.30
2019-03-15T08:42:40.687Z,3.00
2019-03-15T08:45:12.116Z,2.80
2019-03-15T08:47:40.513Z,2.43
2019-03-15T08:50:14.747Z,2.33
2019-03-15T08:52:42.323Z,2.30
2019-03-15T08:55:11.951Z,2.20
2019-03-15T08:57:40.335Z,1.97
2019-03-15T09:00:11.997Z,2.10
2019-03-15T09:02:40.381Z,2.20
2019-03-15T09:05:10.805Z,1.70
2019-03-15T09:07:39.193Z,2.80
2019-03-15T09:10:21.874Z,2.43
2019-03-15T09:12:41.853Z,2.97
2019-03-15T09:15:11.427Z,3.30
2019-03-15T09:17:39.834Z,4.00
2019-03-15T09:20:10.103Z,3.83
2019-03-15T09:22:38.487Z,4.10
2019-03-15T09:25:19.365Z,3.73
2019-03-15T09:27:45.119Z,3.70
2019-03-15T09:30:23.359Z,3.60
2019-03-15T09:32:43.834Z,3.90
2019-03-15T09:35:12.365Z,3.67
2019-03-15T09:37:40.737Z,3.83
2019-03-15T09:40:11.635Z,3.80
2019-03-15T09:42:40.027Z,4.33
2019-03-15T09:45:11.323Z,3.87
2019-03-15T09:47:39.701Z,3.70
2019-03-15T09:50:21.100Z,4.23
2019-03-15T09:52:41.155Z,3.97
2019-03-15T09:55:10.977Z,4.03
2019-03-15T09:57:39.429Z,4.50
2019-03-15T10:00:10.853Z,3.87
2019-03-15T10:02:39.240Z,4.13
2019-03-15T10:05:11.374Z,4.50
2019-03-15T10:07:40.303Z,4.30
2019-03-15T10:10:14.000Z,4.13
2019-03-15T10:12:41.951Z,4.27
2019-03-15T10:15:17.201Z,4.10
2019-03-15T10:17:45.665Z,4.13
2019-03-15T10:20:15.008Z,4.20
2019-03-15T10:22:43.498Z,3.70
2019-03-15T10:25:15.935Z,3.90
2019-03-15T10:27:44.377Z,3.77
2019-03-15T10:30:17.424Z,3.57
2019-03-15T10:32:45.828Z,4.00
2019-03-15T10:35:14.205Z,4.23
2019-03-15T10:37:42.592Z,4.63
2019-03-15T10:40:24.223Z,5.30
2019-03-15T10:42:55.354Z,5.50
2019-03-15T10:45:22.775Z,4.10
2019-03-15T10:47:51.190Z,2.87
2019-03-15T10:50:20.110Z,2.03
2019-03-15T10:52:48.513Z,1.80
2019-03-15T10:55:20.334Z,1.20
2019-03-15T10:57:47.030Z,1.20
2019-03-15T11:00:17.503Z,1.30
2019-03-15T11:02:45.891Z,0.90
2019-03-15T11:05:14.414Z,0.90
2019-03-15T11:07:42.823Z,1.00
2019-03-15T11:10:12.146Z,0.90
2019-03-15T11:12:40.533Z,0.93
2019-03-15T11:15:10.846Z,0.90
2019-03-15T11:17:39.224Z,0.90
2019-03-15T11:20:09.731Z,1.00
2019-03-15T11:22:38.115Z,0.80
2019-03-15T11:25:10.648Z,1.00
2019-03-15T11:27:39.036Z,0.90
2019-03-15T11:30:09.666Z,0.90
2019-03-15T11:32:38.039Z,1.00
2019-03-15T11:35:08.347Z,1.00
2019-03-15T11:37:36.735Z,0.93
2019-03-15T11:40:19.406Z,1.20
2019-03-15T11:42:48.070Z,1.00
2019-03-15T11:45:16.720Z,1.30
2019-03-15T11:48:01.895Z,1.30
2019-03-15T11:50:19.804Z,1.17
2019-03-15T11:52:48.192Z,1.30
2019-03-15T11:55:16.577Z,1.50
2019-03-15T11:57:45.027Z,1.70
2019-03-15T12:00:16.097Z,1.57
2019-03-15T12:02:44.485Z,1.90
2019-03-15T12:05:13.404Z,2.10
2019-03-15T12:07:41.790Z,2.27
2019-03-15T12:10:14.521Z,2.20
2019-03-15T12:12:42.974Z,2.00
2019-03-15T12:15:15.549Z,2.40
2019-03-15T12:17:43.940Z,2.60
2019-03-15T12:20:13.167Z,2.60
2019-03-15T12:22:41.611Z,2.87
2019-03-15T12:25:10.835Z,2.90
2019-03-15T12:27:39.214Z,3.10
2019-03-15T12:30:12.582Z,3.50
2019-03-15T12:32:41.034Z,3.93
2019-03-15T12:35:13.144Z,3.37
2019-03-15T12:38:00.865Z,3.43
2019-03-15T12:40:29.256Z,3.80
2019-03-15T12:42:57.637Z,3.90
2019-03-15T12:45:26.027Z,3.20
2019-03-15T12:47:54.407Z,3.70
2019-03-15T12:50:22.876Z,3.80
2019-03-15T12:52:51.270Z,3.40
2019-03-15T12:55:19.647Z,3.70
2019-03-15T12:57:49.645Z,3.40
2019-03-15T13:00:19.210Z,3.60
2019-03-15T13:02:47.655Z,3.97
2019-03-15T13:05:16.032Z,3.53
2019-03-15T13:07:44.418Z,3.47
2019-03-15T13:10:14.971Z,4.00
2019-03-15T13:12:43.357Z,4.00
2019-03-15T13:15:13.578Z,4.03
2019-03-15T13:17:41.978Z,4.30
2019-03-15T13:20:13.237Z,4.50
2019-03-15T13:22:41.716Z,3.90
2019-03-15T13:25:11.353Z,4.10
2019-03-15T13:27:39.736Z,4.00
2019-03-15T13:30:13.186Z,4.40
2019-03-15T13:32:41.565Z,4.10
2019-03-15T13:35:10.450Z,4.40
2019-03-15T13:37:42.308Z,4.70
2019-03-15T13:40:14.276Z,4.03
2019-03-15T13:42:42.655Z,4.20
2019-03-15T13:45:12.278Z,4.10
2019-03-15T13:47:40.764Z,3.97
2019-03-15T13:50:11.907Z,3.97
2019-03-15T13:52:40.290Z,4.17
2019-03-15T13:55:08.881Z,3.93
2019-03-15T13:57:37.263Z,3.77
2019-03-15T14:00:11.442Z,3.53
2019-03-15T14:02:39.831Z,3.07
2019-03-15T14:05:08.452Z,3.33
2019-03-15T14:07:36.832Z,3.60
2019-03-15T14:10:10.983Z,2.80
2019-03-15T14:12:39.383Z,2.60
2019-03-15T14:15:10.685Z,2.90
2019-03-15T14:17:39.085Z,2.30
2019-03-15T14:20:10.205Z,2.10
2019-03-15T14:22:38.584Z,1.90
2019-03-15T14:25:10.250Z,2.00
2019-03-15T14:27:38.658Z,1.90
2019-03-15T14:30:10.071Z,1.53
2019-03-15T14:32:38.451Z,1.50
2019-03-15T14:35:08.080Z,1.67
2019-03-15T14:37:36.459Z,1.50
2019-03-15T14:40:07.011Z,1.60
2019-03-15T14:42:35.461Z,1.27
2019-03-15T14:45:04.544Z,1.47
2019-03-15T14:47:32.995Z,1.40
2019-03-15T14:50:01.534Z,1.03
2019-03-15T14:52:29.901Z,1.10
2019-03-15T14:54:58.344Z,1.10
2019-03-15T14:57:26.725Z,1.10
2019-03-15T14:59:55.111Z,1.20
2019-03-15T15:02:23.494Z,1.10
2019-03-15T15:04:51.967Z,0.70
2019-03-15T15:07:20.351Z,1.20
2019-03-15T15:09:48.754Z,1.07
2019-03-15T15:12:17.146Z,0.97
2019-03-15T15:14:45.610Z,1.20
2019-03-15T15:17:14.016Z,1.17
2019-03-15T15:19:42.392Z,0.90
2019-03-15T15:22:10.807Z,0.80
2019-03-15T15:24:39.187Z,1.20
2019-03-15T15:27:07.564Z,0.90
2019-03-15T15:29:36.045Z,0.70
2019-03-15T15:32:04.449Z,0.70
2019-03-15T15:34:32.843Z,0.70
2019-03-15T15:37:01.228Z,0.73
2019-03-15T15:39:29.615Z,0.80
2019-03-15T15:41:58.747Z,0.80
2019-03-15T15:44:27.258Z,0.80
2019-03-15T15:46:55.657Z,0.90
2019-03-15T15:49:26.194Z,0.70
2019-03-15T15:51:54.231Z,0.90
2019-03-15T15:54:22.695Z,0.70
2019-03-15T15:56:51.186Z,0.70
2019-03-15T15:59:19.541Z,0.60
2019-03-15T16:01:47.923Z,0.80
2019-03-15T16:04:16.307Z,0.73
2019-03-15T16:06:44.688Z,0.90
2019-03-15T16:09:13.064Z,0.70
2019-03-15T16:11:41.482Z,0.70
2019-03-15T16:14:09.867Z,0.60
2019-03-15T16:16:38.331Z,0.50
2019-03-15T16:19:06.857Z,0.80
2019-03-15T16:21:35.265Z,0.80
2019-03-15T16:24:03.717Z,1.93
2019-03-15T16:26:32.125Z,0.80
2019-03-15T16:29:00.501Z,1.17
2019-03-15T16:31:28.887Z,0.80
2019-03-15T16:33:57.274Z,0.60
2019-03-15T16:36:25.687Z,0.70
2019-03-15T16:38:54.034Z,0.50
2019-03-15T16:41:22.423Z,0.50
2019-03-15T16:43:50.813Z,0.50
2019-03-15T16:46:19.217Z,0.40
2019-03-15T16:48:47.594Z,0.90
2019-03-15T16:51:19.837Z,0.80
2019-03-15T16:53:46.152Z,0.70
2019-03-15T16:56:14.557Z,0.70
2019-03-15T16:58:45.799Z,0.50
2019-03-15T17:01:13.158Z,0.50
2019-03-15T17:03:41.542Z,0.33
2019-03-15T17:06:10.178Z,0.40
2019-03-15T17:08:39.602Z,0.43
2019-03-15T17:11:07.978Z,0.73
2019-03-15T17:13:36.381Z,0.80
2019-03-15T17:16:04.860Z,0.77
2019-03-15T17:18:33.330Z,0.90
2019-03-15T17:21:01.753Z,0.90
2019-03-15T17:23:30.136Z,0.70
2019-03-15T17:25:58.514Z,0.53
2019-03-15T17:28:26.898Z,0.83
2019-03-15T17:31:08.691Z,0.60
2019-03-15T17:33:25.460Z,0.50
2019-03-15T17:35:53.848Z,0.60
2019-03-15T17:38:22.235Z,0.63
2019-03-15T17:40:50.812Z,0.50
2019-03-15T17:43:19.272Z,0.60
2019-03-15T17:45:47.652Z,0.40
2019-03-15T17:48:16.083Z,1.30
2019-03-15T17:50:44.604Z,0.60
2019-03-15T17:53:12.984Z,0.60
2019-03-15T17:55:41.367Z,0.50
2019-03-15T17:58:09.760Z,0.40
2019-03-15T18:00:42.695Z,0.50
2019-03-15T18:03:20.638Z,0.50
2019-03-15T18:05:41.315Z,0.30
2019-03-15T18:08:09.699Z,0.33
2019-03-15T18:10:38.251Z,0.50
2019-03-15T18:13:06.787Z,0.33
2019-03-15T18:15:35.166Z,0.30
2019-03-15T18:18:03.675Z,0.50
2019-03-15T18:20:32.059Z,0.47
2019-03-15T18:23:00.460Z,0.30
2019-03-15T18:25:28.903Z,0.30
2019-03-15T18:27:57.375Z,0.30
2019-03-15T18:30:25.756Z,0.40
2019-03-15T18:32:54.323Z,0.40
2019-03-15T18:35:33.085Z,0.40
2019-03-15T18:37:52.829Z,0.40
2019-03-15T18:40:21.467Z,0.30
2019-03-15T18:42:50.093Z,0.30
2019-03-15T18:45:19.021Z,0.50
2019-03-15T18:47:47.514Z,0.43
2019-03-15T18:50:23.658Z,0.30
2019-03-15T18:52:52.041Z,0.40
2019-03-15T18:55:20.486Z,0.30
2019-03-15T18:57:48.866Z,0.33
2019-03-15T19:00:26.305Z,0.33
2019-03-15T19:02:54.674Z,0.50
2019-03-15T19:05:23.137Z,0.37
2019-03-15T19:07:51.733Z,0.30
2019-03-15T19:10:20.116Z,0.40
2019-03-15T19:12:48.518Z,0.30
2019-03-15T19:15:18.342Z,0.50
2019-03-15T19:17:46.736Z,0.40
2019-03-15T19:20:16.255Z,0.70
2019-03-15T19:22:44.895Z,0.50
2019-03-15T19:25:14.318Z,0.50
2019-03-15T19:27:42.740Z,0.50
2019-03-15T19:30:14.178Z,0.50
2019-03-15T19:32:42.663Z,0.40
2019-03-15T19:35:11.170Z,0.50
2019-03-15T19:37:39.534Z,0.53
2019-03-15T19:40:13.607Z,0.50
2019-03-15T19:42:44.868Z,0.70
2019-03-15T19:45:16.080Z,0.60
2019-03-15T19:47:44.513Z,0.60
2019-03-15T19:50:22.553Z,0.70
2019-03-15T19:52:50.971Z,0.70
2019-03-15T19:55:19.403Z,0.70
2019-03-15T19:57:47.798Z,0.70
2019-03-15T20:00:18.279Z,0.70
2019-03-15T20:02:46.685Z,0.60
2019-03-15T20:05:15.133Z,0.80
2019-03-15T20:07:43.579Z,0.60
2019-03-15T20:10:17.204Z,0.70
2019-03-15T20:12:45.825Z,0.60
2019-03-15T20:15:15.458Z,0.70
2019-03-15T20:17:43.874Z,0.53
2019-03-15T20:20:13.815Z,0.60
2019-03-15T20:22:43.144Z,0.60
2019-03-15T20:25:13.183Z,0.90
2019-03-15T20:27:41.566Z,0.70
2019-03-15T20:30:20.975Z,0.60
2019-03-15T20:32:43.339Z,0.70
2019-03-15T20:35:11.814Z,0.70
2019-03-15T20:37:40.198Z,0.60
2019-03-15T20:40:10.917Z,0.80
2019-03-15T20:42:39.309Z,0.77
2019-03-15T20:45:10.505Z,0.90
2019-03-15T20:47:41.575Z,0.60
2019-03-15T20:50:11.892Z,0.60
2019-03-15T20:52:40.272Z,0.67
2019-03-15T20:55:09.299Z,0.80
2019-03-15T20:57:37.676Z,0.50
2019-03-15T21:00:09.482Z,0.50
2019-03-15T21:02:37.904Z,0.60
2019-03-15T21:05:08.275Z,0.70
2019-03-15T21:07:39.507Z,0.50
2019-03-15T21:10:15.721Z,0.63
2019-03-15T21:12:44.103Z,0.50
2019-03-15T21:15:14.268Z,0.50
2019-03-15T21:17:42.687Z,0.50
2019-03-15T21:20:18.524Z,0.50
2019-03-15T21:22:46.916Z,0.57
2019-03-15T21:25:15.404Z,0.53
2019-03-15T21:27:53.675Z,0.90
2019-03-15T21:30:18.804Z,0.80
2019-03-15T21:32:47.283Z,0.70
2019-03-15T21:35:15.647Z,0.70
2019-03-15T21:37:44.035Z,0.63
2019-03-15T21:40:13.763Z,0.40
2019-03-15T21:42:42.253Z,0.50
2019-03-15T21:45:11.937Z,0.40
2019-03-15T21:47:40.326Z,0.70
2019-03-15T21:50:22.843Z,0.70
2019-03-15T21:52:51.377Z,0.40
2019-03-15T21:55:19.792Z,0.40
2019-03-15T21:57:48.256Z,0.50
2019-03-15T22:00:18.865Z,0.40
2019-03-15T22:02:47.327Z,0.50
2019-03-15T22:05:15.706Z,0.70
2019-03-15T22:07:44.120Z,0.50
2019-03-15T22:10:14.465Z,0.50
2019-03-15T22:12:42.844Z,0.60
2019-03-15T22:15:12.263Z,0.63
2019-03-15T22:17:40.728Z,0.57
2019-03-15T22:20:13.824Z,0.60
2019-03-15T22:22:42.232Z,0.70
2019-03-15T22:25:10.735Z,0.50
2019-03-15T22:27:39.109Z,0.47
2019-03-15T22:30:09.830Z,0.80
2019-03-15T22:32:38.583Z,0.73
2019-03-15T22:35:07.601Z,0.70
2019-03-15T22:37:35.985Z,1.10
2019-03-15T22:40:06.712Z,0.80
2019-03-15T22:42:35.099Z,0.70
2019-03-15T22:45:04.345Z,0.60
2019-03-15T22:47:32.732Z,0.80
2019-03-15T22:50:01.116Z,0.60
2019-03-15T22:52:29.542Z,0.60
2019-03-15T22:54:58.202Z,0.80
2019-03-15T22:57:26.587Z,0.60
2019-03-15T22:59:54.977Z,0.80
2019-03-15T23:02:23.362Z,0.70
2019-03-15T23:04:51.750Z,0.70
2019-03-15T23:07:20.143Z,0.70
2019-03-15T23:09:48.536Z,0.53
2019-03-15T23:12:16.973Z,0.60
2019-03-15T23:14:45.371Z,0.60
2019-03-15T23:17:13.746Z,0.60
2019-03-15T23:19:42.189Z,0.50
2019-03-15T23:22:10.571Z,0.60
2019-03-15T23:24:39.030Z,0.50
2019-03-15T23:27:07.424Z,0.50
2019-03-15T23:29:35.790Z,0.63
2019-03-15T23:32:04.187Z,0.60
2019-03-15T23:34:32.578Z,0.80
2019-03-15T23:37:00.955Z,0.80
2019-03-15T23:39:29.360Z,0.80
2019-03-15T23:41:57.734Z,0.67
2019-03-15T23:44:26.119Z,0.50
2019-03-15T23:46:54.590Z,0.43
2019-03-15T23:49:22.959Z,0.53
2019-03-15T23:51:51.338Z,0.50
2019-03-15T23:54:19.745Z,0.73
2019-03-15T23:56:48.104Z,0.50
2019-03-15T23:59:16.498Z,0.40
